Rejestracja

Wszystkie dane podawane są w czasie UTC za wyjątkiem miejsc gdzie jest jednoznacznie podane, że jest inaczej. Dane podawane w serwisie mają charakter informacyjny!!!
Informacje w sprawie dostępu do serwisu pod numerem tel. +48 261-828-559 lub +48 261-828-138
Informacja dla żołnierzy i pracowników wojska: Prosimy o niezwłoczną zmianę adresu e-mail w profilu użytkownika na pocztę w domenie @ron.mil.pl

Aktualna Pogoda
 
Pogoda w Polsce
13°C Szczecin 13°C Suwałki 14°C Warszawa 13°C Poznan
13°C Opole 12°C Kraków 13°C Rzeszów
Więcej miast w Polsce

Pogoda w Europie
14°C Berlin 15°C Paryz 12°C Bruksela 10°C Oslo
15°C Praga 14°C Zagrzeb
Więcej miast w Europie

Metary wojskowe test
METAR EPBC 080500Z 20002KT 9999 NSC 14/07 Q1013=
SPECI COR EPCE 080516Z 26007KT 9999 -SHRA SCT005 OVC030CB 11/10 Q1011 RMK 110 093 8/4=
METAR EPDA 080500Z 27009KT 230V320 9999 FEW018 BKN052 14/08 Q1011 RMK 135 071 7/1=
METAR EPDE 080500Z 21004KT 9999 BKN200 13/10 Q1015 RMK 133 078 6/6=
METAR EPIR 080500Z 22012KT 9999 FEW014 BKN060 12/10 Q1013 RMK 122 084 7/2=
METAR EPKS 080500Z 26008KT 9999 SCT011 BKN070 13/13 Q1014 RMK 125 100 7/3=
METAR EPLK 080500Z 28005KT 250V310 9999 SCT060 BKN100 12/09 Q1015 RMK 123 080 7/4=
METAR EPLY 080500Z 28004KT 9999 NSC 13/09 Q1014 RMK 129 077 7/4=
METAR EPMB 080500Z AUTO 26010KT 9999 -RA NCD 12/10 Q1011 RMK 117 092 ///=
METAR EPMI 080500Z 27010KT 230V300 9999 SCT008 BKN014 11/10 Q1013 RMK 110 092 7/3=
METAR EPMM 080500Z 22005KT 190V250 9999 FEW050 BKN080 13/08 Q1014 RMK 128 074 5/1=
METAR EPNA 080500Z 26010KT 9999 SCT017 BKN020 11/06 Q1013 RMK 113 068 6/3=
METAR EPOK 080500Z 25011KT 9999 BKN080 12/10 Q1010 RMK 124 088 7/7=
METAR EPPR 080500Z 21004KT 9999 SCT086 12/10 Q1011 RMK 121 089 3/3=
METAR EPPW 080500Z 26010KT 9999 SCT050 BKN070 12/11 Q1014 REDZ RMK 121 093 7/4=
METAR EPSN 080500Z 25008KT 9999 BKN008 OVC011 11/11 Q1012 RMK 114 095 8/6=
METAR EPTM 080500Z 22004KT 9999 BKN070 BKN200 13/09 Q1015 RMK 130 077 7/5=


 

Prawa autorskie©2007 SSH SZ RP. Wszelkie prawa zastrzeżone.